Time;durP1;ratioP1;P1;durP2;ratioP2;P2;SDS_P1;SDS_P2;PMS_P1;PMS_P2;Temp;Humidity;BMP_temperature;BMP_pressure;BME280_temperature;BME280_humidity;BME280_pressure;Samples;Min_cycle;Max_cycle;Signal;HPM_P1;HPM_P2
2021/09/25 00:01:40;;;;;;;88.68;41.13;;;8.50;99.90;;;;;;21160742;28;20051;-53
2021/09/25 00:11:43;;;;;;;73.30;34.92;;;8.60;99.90;;;;;;21213428;27;20031;-55
2021/09/25 00:21:44;;;;;;;89.95;39.90;;;8.50;99.90;;;;;;21243985;27;20050;-52
2021/09/25 00:31:46;;;;;;;78.82;39.53;;;8.60;99.90;;;;;;21243962;27;20338;-50
2021/09/25 00:41:48;;;;;;;68.25;37.38;;;8.70;99.90;;;;;;21243298;27;20066;-51
2021/09/25 00:51:51;;;;;;;67.78;36.20;;;8.60;99.90;;;;;;21175057;27;20039;-51
2021/09/25 01:01:54;;;;;;;70.72;35.05;;;8.60;99.90;;;;;;21156981;28;20035;-51
2021/09/25 01:11:56;;;;;;;95.07;41.20;;;8.50;99.90;;;;;;21192364;27;20031;-52
2021/09/25 01:21:58;;;;;;;89.57;38.85;;;8.50;99.90;;;;;;21240332;27;20080;-51
2021/09/25 01:32:01;;;;;;;106.55;45.53;;;8.40;99.90;;;;;;21239730;27;20448;-51
2021/09/25 01:42:04;;;;;;;83.60;42.65;;;8.40;99.90;;;;;;21238972;27;20051;-56
2021/09/25 01:52:07;;;;;;;77.70;40.15;;;8.40;99.90;;;;;;21169049;28;20058;-51
2021/09/25 02:02:09;;;;;;;68.28;36.63;;;8.60;99.90;;;;;;21153814;28;20031;-51
2021/09/25 02:12:11;;;;;;;73.72;36.90;;;8.70;99.90;;;;;;21146316;28;20023;-50
2021/09/25 02:22:13;;;;;;;54.22;28.33;;;8.50;99.90;;;;;;21153007;28;20062;-52
2021/09/25 02:32:16;;;;;;;77.25;34.60;;;8.70;99.90;;;;;;21152939;28;20028;-51
2021/09/25 02:42:18;;;;;;;90.90;40.05;;;8.40;99.90;;;;;;21141430;28;20085;-53
2021/09/25 02:52:20;;;;;;;90.38;42.03;;;8.20;99.90;;;;;;21149104;28;20144;-52
2021/09/25 03:02:22;;;;;;;77.43;36.40;;;8.20;99.90;;;;;;21166233;28;20077;-50
2021/09/25 03:12:24;;;;;;;94.00;42.45;;;8.50;99.90;;;;;;21165748;28;20093;-51
2021/09/25 03:22:26;;;;;;;80.93;37.83;;;8.40;99.90;;;;;;21146945;28;20035;-51
2021/09/25 03:32:28;;;;;;;93.53;39.17;;;8.40;99.90;;;;;;21146206;28;20036;-51
2021/09/25 03:42:29;;;;;;;88.78;37.97;;;8.30;99.90;;;;;;21163439;28;20069;-50
2021/09/25 03:52:31;;;;;;;100.28;40.22;;;8.10;99.90;;;;;;21138582;28;20120;-50
2021/09/25 04:02:33;;;;;;;75.88;34.30;;;8.10;99.90;;;;;;21163121;28;20308;-54
2021/09/25 04:12:38;;;;;;;93.32;40.08;;;8.20;99.90;;;;;;21218729;27;20378;-50
2021/09/25 04:22:40;;;;;;;117.38;45.22;;;8.20;99.90;;;;;;21244041;27;20043;-50
2021/09/25 04:32:43;;;;;;;113.95;44.25;;;8.20;99.90;;;;;;21244221;27;20413;-56
2021/09/25 04:42:45;;;;;;;127.65;49.75;;;8.20;99.90;;;;;;21242159;27;20039;-51
2021/09/25 04:52:47;;;;;;;160.77;60.05;;;8.20;99.90;;;;;;21147934;28;20096;-51
2021/09/25 05:02:52;;;;;;;120.32;54.58;;;8.20;99.90;;;;;;21156150;28;20035;-50
2021/09/25 05:12:54;;;;;;;108.50;49.35;;;8.40;99.90;;;;;;21143435;28;20536;-50
2021/09/25 05:22:56;;;;;;;118.45;54.80;;;8.60;99.90;;;;;;21155491;28;20054;-51
2021/09/25 05:32:58;;;;;;;103.18;47.70;;;9.00;99.90;;;;;;21136805;28;20028;-50
2021/09/25 05:42:59;;;;;;;96.60;41.47;;;9.30;99.90;;;;;;21082875;28;20558;-54
2021/09/25 05:53:01;;;;;;;86.80;37.50;;;9.70;99.90;;;;;;21064368;28;20032;-51
2021/09/25 06:03:04;;;;;;;84.65;37.70;;;10.10;99.90;;;;;;21069614;28;20040;-51
2021/09/25 06:13:06;;;;;;;78.95;36.72;;;10.50;99.90;;;;;;21071607;28;20552;-50
2021/09/25 06:23:09;;;;;;;61.22;30.65;;;10.80;99.90;;;;;;21085777;28;20039;-51
2021/09/25 06:33:11;;;;;;;51.72;28.42;;;11.20;99.90;;;;;;21084416;28;20039;-50
2021/09/25 06:43:14;;;;;;;47.38;26.58;;;11.70;99.90;;;;;;21156792;28;20486;-51
2021/09/25 06:53:18;;;;;;;44.88;24.98;;;12.20;99.90;;;;;;21166927;28;20031;-54
2021/09/25 07:03:21;;;;;;;41.92;23.30;;;12.70;99.90;;;;;;21166012;28;20053;-54
2021/09/25 07:13:24;;;;;;;41.60;24.05;;;13.10;99.90;;;;;;21165449;28;20028;-51
2021/09/25 07:23:27;;;;;;;38.58;23.98;;;13.40;99.90;;;;;;21164169;28;20036;-53
2021/09/25 07:33:29;;;;;;;39.90;23.15;;;13.70;99.90;;;;;;21163704;28;20039;-53
2021/09/25 07:43:31;;;;;;;35.90;22.52;;;14.00;99.90;;;;;;21162616;28;20043;-54
2021/09/25 07:53:33;;;;;;;37.10;22.27;;;14.30;99.90;;;;;;21080659;28;20032;-57
2021/09/25 08:03:35;;;;;;;35.03;24.00;;;14.50;99.90;;;;;;21078275;28;20032;-52
2021/09/25 08:13:37;;;;;;;36.30;22.13;;;14.90;99.90;;;;;;21058073;28;20510;-52
2021/09/25 08:23:39;;;;;;;36.88;23.20;;;16.00;99.90;;;;;;21075810;28;20059;-51
2021/09/25 08:33:43;;;;;;;33.38;21.52;;;17.20;99.90;;;;;;21157964;28;20039;-55
2021/09/25 08:43:45;;;;;;;39.50;25.15;;;17.80;99.90;;;;;;21234946;27;20051;-52
2021/09/25 08:53:48;;;;;;;31.50;20.83;;;17.80;99.90;;;;;;21156825;27;20097;-54
2021/09/25 09:03:52;;;;;;;30.95;20.15;;;17.90;99.90;;;;;;21156259;28;20027;-52
2021/09/25 09:13:59;;;;;;;27.58;17.80;;;18.20;99.90;;;;;;21221753;27;20027;-56
2021/09/25 09:24:08;;;;;;;29.05;18.63;;;19.00;99.90;;;;;;21239580;27;20027;-53
2021/09/25 09:34:10;;;;;;;25.43;17.80;;;19.10;99.90;;;;;;21233742;27;20039;-52
2021/09/25 09:44:21;;;;;;;24.35;15.60;;;19.10;99.90;;;;;;21233773;27;20051;-54
2021/09/25 09:54:28;;;;;;;25.40;16.42;;;18.60;99.90;;;;;;21153475;28;20032;-49
2021/09/25 10:04:31;;;;;;;24.08;17.10;;;18.40;99.90;;;;;;21152704;28;20032;-55
2021/09/25 10:14:39;;;;;;;24.50;17.00;;;18.40;99.90;;;;;;21133774;28;20034;-49
2021/09/25 10:24:51;;;;;;;26.73;17.87;;;18.80;99.90;;;;;;21151450;28;20508;-49
2021/09/25 10:35:12;;;;;;;21.77;16.33;;;18.70;99.90;;;;;;21151605;28;20191;-50
2021/09/25 10:45:25;;;;;;;24.83;16.38;;;18.40;99.90;;;;;;21150809;28;20101;-54
2021/09/25 10:55:30;;;;;;;24.50;16.77;;;18.00;99.90;;;;;;21150791;28;20485;-55
2021/09/25 11:06:01;;;;;;;20.70;15.07;;;17.80;99.90;;;;;;21160438;28;20039;-51
2021/09/25 11:16:04;;;;;;;22.27;15.20;;;17.90;99.90;;;;;;21164655;28;20038;-54
2021/09/25 11:26:07;;;;;;;20.85;15.43;;;17.90;99.90;;;;;;21164026;28;20027;-53
2021/09/25 11:36:11;;;;;;;26.35;16.98;;;17.70;99.90;;;;;;21162960;28;20032;-56
2021/09/25 11:46:14;;;;;;;28.52;17.58;;;17.20;99.90;;;;;;21127577;28;20039;-55
2021/09/25 11:56:28;;;;;;;27.67;17.10;;;16.90;99.90;;;;;;21160779;28;20324;-56
2021/09/25 12:06:29;;;;;;;25.02;18.58;;;16.60;99.90;;;;;;21160154;28;20435;-52
2021/09/25 12:16:31;;;;;;;24.45;16.50;;;16.20;99.90;;;;;;21159531;28;20031;-51
2021/09/25 12:26:41;;;;;;;26.67;17.35;;;16.10;99.90;;;;;;21158856;28;20080;-54
2021/09/25 12:36:44;;;;;;;;;;;15.90;99.90;;;;;;21168302;27;20035;-51
2021/09/25 12:46:48;;;;;;;25.88;16.75;;;15.80;99.90;;;;;;21217102;27;20313;-52
2021/09/25 12:56:53;;;;;;;42.40;17.23;;;15.80;99.90;;;;;;21156249;28;20547;-53
2021/09/25 13:06:58;;;;;;;29.77;18.33;;;15.70;99.90;;;;;;21143769;27;20039;-53
2021/09/25 13:17:00;;;;;;;26.30;17.05;;;15.40;99.90;;;;;;21239989;27;20027;-54
2021/09/25 13:27:01;;;;;;;30.13;20.38;;;15.20;99.90;;;;;;21239161;27;20035;-56
2021/09/25 13:37:04;;;;;;;29.88;20.13;;;15.10;99.90;;;;;;21211399;27;20050;-52
2021/09/25 13:47:06;;;;;;;29.38;18.77;;;14.90;99.90;;;;;;21211191;27;20032;-58
2021/09/25 13:57:09;;;;;;;31.55;20.10;;;14.90;99.90;;;;;;21152680;28;20035;-54
2021/09/25 14:07:11;;;;;;;31.63;19.35;;;14.90;99.90;;;;;;21126896;28;20386;-54
2021/09/25 14:17:13;;;;;;;30.60;18.88;;;15.10;99.90;;;;;;21152144;28;20028;-55
2021/09/25 14:27:19;;;;;;;29.73;19.35;;;15.10;99.90;;;;;;21151709;28;20421;-53
2021/09/25 14:37:21;;;;;;;30.90;17.55;;;15.20;99.90;;;;;;21157194;28;20552;-52
2021/09/25 14:47:23;;;;;;;24.70;17.65;;;15.50;99.90;;;;;;21118195;28;20056;-57
2021/09/25 14:57:24;;;;;;;20.88;15.05;;;15.90;99.90;;;;;;21081566;28;20028;-51
2021/09/25 15:07:26;;;;;;;19.25;14.82;;;16.20;99.90;;;;;;21081149;28;20100;-53
2021/09/25 15:17:28;;;;;;;21.33;15.63;;;16.30;99.90;;;;;;21080306;28;20475;-53
2021/09/25 15:27:31;;;;;;;21.45;15.88;;;16.20;99.90;;;;;;21079351;28;20550;-57
2021/09/25 15:37:34;;;;;;;20.60;14.15;;;16.30;99.90;;;;;;21060087;28;20032;-56
2021/09/25 15:47:36;;;;;;;22.75;15.98;;;16.10;99.90;;;;;;21059973;28;20024;-52
2021/09/25 15:57:38;;;;;;;25.40;16.80;;;15.60;99.90;;;;;;21077269;28;20347;-58
2021/09/25 16:07:41;;;;;;;24.02;16.70;;;15.20;99.90;;;;;;21076892;28;20101;-55
2021/09/25 16:17:42;;;;;;;25.25;17.48;;;15.00;99.90;;;;;;21075999;28;20040;-54
2021/09/25 16:27:44;;;;;;;27.40;17.85;;;14.60;99.90;;;;;;21074860;28;20576;-56
2021/09/25 16:37:46;;;;;;;29.35;18.25;;;14.30;99.90;;;;;;21103243;27;20062;-57
2021/09/25 16:47:48;;;;;;;31.23;20.00;;;14.00;99.90;;;;;;21210452;27;20039;-54
2021/09/25 16:57:50;;;;;;;38.08;23.23;;;13.90;99.90;;;;;;21156596;28;20425;-57
2021/09/25 17:07:52;;;;;;;55.60;31.77;;;13.50;99.90;;;;;;21156411;28;20027;-57
2021/09/25 17:17:54;;;;;;;43.17;26.45;;;13.00;99.90;;;;;;21137415;28;20020;-52
2021/09/25 17:27:57;;;;;;;41.63;25.67;;;12.80;99.90;;;;;;21155328;28;20104;-53
2021/09/25 17:37:59;;;;;;;43.42;25.92;;;12.60;99.90;;;;;;21146456;28;20048;-54
2021/09/25 17:48:02;;;;;;;47.83;28.02;;;12.60;99.90;;;;;;21149650;28;20057;-53
2021/09/25 17:58:04;;;;;;;39.70;24.33;;;12.60;99.90;;;;;;21154213;28;20483;-52
2021/09/25 18:08:06;;;;;;;48.88;27.98;;;12.80;99.90;;;;;;21176557;27;20035;-52
2021/09/25 18:18:09;;;;;;;37.30;23.50;;;13.00;99.90;;;;;;21255500;27;20076;-52
2021/09/25 18:28:12;;;;;;;39.53;24.30;;;12.90;99.90;;;;;;21254402;27;20080;-52
2021/09/25 18:38:14;;;;;;;42.95;26.08;;;13.00;99.90;;;;;;21253544;27;20035;-53
2021/09/25 18:48:20;;;;;;;39.80;24.45;;;12.80;99.90;;;;;;21214100;27;20039;-57
2021/09/25 18:58:23;;;;;;;46.42;25.83;;;12.70;99.90;;;;;;21166042;28;20406;-54
2021/09/25 19:08:25;;;;;;;40.85;24.02;;;12.70;99.90;;;;;;21165972;28;20057;-55
2021/09/25 19:18:36;;;;;;;42.88;22.58;;;12.80;99.90;;;;;;21165109;28;20036;-56
2021/09/25 19:28:39;;;;;;;36.28;22.95;;;12.70;99.90;;;;;;21164480;28;20546;-53
2021/09/25 19:38:42;;;;;;;49.28;28.27;;;12.70;99.90;;;;;;21164974;28;20109;-55
2021/09/25 19:48:44;;;;;;;52.45;30.52;;;12.70;99.90;;;;;;21162607;28;20038;-56
2021/09/25 19:58:47;;;;;;;40.72;24.88;;;12.60;99.90;;;;;;21161883;28;20390;-56
2021/09/25 20:08:49;;;;;;;38.83;22.30;;;12.70;99.90;;;;;;21189017;27;20027;-52
2021/09/25 20:18:51;;;;;;;39.15;23.30;;;12.60;99.90;;;;;;21245517;27;20449;-58
2021/09/25 20:28:53;;;;;;;43.60;28.27;;;12.60;99.90;;;;;;21244567;27;20039;-57
2021/09/25 20:38:56;;;;;;;43.17;23.60;;;12.40;99.90;;;;;;21225492;27;20055;-51
2021/09/25 20:48:58;;;;;;;39.67;23.52;;;12.20;99.90;;;;;;21199276;27;20039;-55
2021/09/25 20:59:01;;;;;;;46.38;26.92;;;12.40;99.90;;;;;;21138949;28;20036;-52
2021/09/25 21:09:03;;;;;;;40.20;23.45;;;12.30;99.90;;;;;;21182411;27;20039;-52
2021/09/25 21:19:05;;;;;;;37.05;22.63;;;12.40;99.90;;;;;;21241105;27;20027;-52
2021/09/25 21:29:09;;;;;;;49.72;27.08;;;12.20;99.90;;;;;;21220613;27;20047;-53
2021/09/25 21:39:11;;;;;;;46.22;25.92;;;11.80;99.90;;;;;;21240351;27;20096;-54
2021/09/25 21:49:14;;;;;;;49.45;28.80;;;11.60;99.90;;;;;;21194271;27;20433;-54
2021/09/25 21:59:16;;;;;;;59.50;28.88;;;11.40;99.90;;;;;;21154031;28;20105;-57
2021/09/25 22:09:20;;;;;;;58.58;31.63;;;11.20;99.90;;;;;;21147026;28;20100;-52
2021/09/25 22:19:22;;;;;;;48.10;27.08;;;11.20;99.90;;;;;;21153249;28;20432;-52
2021/09/25 22:29:25;;;;;;;50.40;28.48;;;11.30;99.90;;;;;;21153099;28;20043;-52
2021/09/25 22:39:27;;;;;;;38.67;19.30;;;11.30;99.90;;;;;;21133259;28;20117;-54
2021/09/25 22:49:29;;;;;;;19.02;7.72;;;11.50;99.90;;;;;;21147658;28;20031;-51
2021/09/25 22:59:31;;;;;;;43.25;25.17;;;12.40;99.90;;;;;;21159947;28;20363;-55
2021/09/25 23:09:33;;;;;;;40.70;20.70;;;12.60;99.90;;;;;;21166694;28;20032;-54
2021/09/25 23:19:35;;;;;;;36.13;21.67;;;12.30;99.90;;;;;;21166492;28;20032;-52
2021/09/25 23:29:37;;;;;;;24.95;14.90;;;12.10;99.90;;;;;;21165454;28;20428;-52
2021/09/25 23:39:39;;;;;;;33.67;18.83;;;12.10;99.90;;;;;;21164083;28;20077;-57
2021/09/25 23:49:40;;;;;;;43.38;22.83;;;12.00;99.90;;;;;;21163518;28;20031;-52
2021/09/25 23:59:49;;;;;;;88.05;45.55;;;12.10;99.90;;;;;;21161564;28;20048;-53
